createdAt,value
2023-05-16T00:02:27.393Z,11.28
2023-05-16T00:04:54.975Z,11.33
2023-05-16T00:07:23.827Z,11.34
2023-05-16T00:09:51.354Z,11.66
2023-05-16T00:12:19.749Z,11.74
2023-05-16T00:14:47.985Z,11.75
2023-05-16T00:17:17.616Z,11.73
2023-05-16T00:19:47.458Z,11.66
2023-05-16T00:22:15.538Z,11.54
2023-05-16T00:24:44.393Z,11.53
2023-05-16T00:27:11.846Z,11.58
2023-05-16T00:29:39.324Z,11.62
2023-05-16T00:32:08.720Z,11.65
2023-05-16T00:34:36.579Z,11.65
2023-05-16T00:37:04.133Z,11.61
2023-05-16T00:39:32.163Z,11.53
2023-05-16T00:42:01.358Z,11.49
2023-05-16T00:44:28.964Z,11.22
2023-05-16T00:46:56.492Z,11.28
2023-05-16T00:49:24.014Z,11.27
2023-05-16T00:51:51.890Z,11.24
2023-05-16T00:54:21.307Z,11.07
2023-05-16T00:56:48.825Z,11.12
2023-05-16T00:59:17.679Z,11.12
2023-05-16T01:01:47.783Z,11.20
2023-05-16T01:04:15.686Z,11.21
2023-05-16T01:06:43.227Z,10.79
2023-05-16T01:09:12.302Z,10.80
2023-05-16T01:11:47.504Z,10.79
2023-05-16T01:14:22.302Z,10.95
2023-05-16T01:17:00.617Z,10.98
2023-05-16T01:19:45.206Z,10.73
2023-05-16T01:22:21.651Z,10.64
2023-05-16T01:25:03.890Z,10.99
2023-05-16T01:27:34.440Z,10.98
2023-05-16T01:30:02.175Z,11.05
2023-05-16T01:32:29.649Z,11.03
2023-05-16T01:34:57.158Z,11.05
2023-05-16T01:37:34.177Z,11.11
2023-05-16T01:40:10.267Z,11.24
2023-05-16T01:42:46.004Z,11.30
2023-05-16T01:45:18.441Z,11.28
2023-05-16T01:47:53.249Z,11.37
2023-05-16T01:50:24.079Z,11.53
2023-05-16T01:52:57.288Z,11.42
2023-05-16T01:55:33.143Z,11.57
2023-05-16T01:58:03.828Z,11.71
2023-05-16T02:00:31.752Z,11.77
2023-05-16T02:02:59.309Z,11.76
2023-05-16T02:05:27.199Z,11.70
2023-05-16T02:07:55.058Z,11.83
2023-05-16T02:10:22.709Z,11.89
2023-05-16T02:12:51.437Z,11.90
2023-05-16T02:15:20.454Z,11.72
2023-05-16T02:17:48.288Z,11.59
2023-05-16T02:20:15.942Z,11.71
2023-05-16T02:22:44.155Z,11.76
2023-05-16T02:25:11.795Z,12.03
2023-05-16T02:27:39.268Z,12.01
2023-05-16T02:30:08.447Z,11.92
2023-05-16T02:32:37.293Z,12.06
2023-05-16T02:35:05.600Z,12.11
2023-05-16T02:37:33.040Z,12.14
2023-05-16T02:40:00.629Z,12.16
2023-05-16T02:42:28.733Z,12.15
2023-05-16T02:44:56.338Z,12.17
2023-05-16T02:47:23.900Z,12.24
2023-05-16T02:49:52.774Z,12.28
2023-05-16T02:52:20.411Z,12.35
2023-05-16T02:54:56.067Z,12.21
2023-05-16T02:57:35.700Z,12.27
2023-05-16T03:00:06.009Z,12.39
2023-05-16T03:02:33.769Z,12.38
2023-05-16T03:05:02.797Z,12.43
2023-05-16T03:07:30.602Z,12.49
2023-05-16T03:09:58.036Z,12.50
2023-05-16T03:12:25.475Z,12.46
2023-05-16T03:14:52.908Z,12.40
2023-05-16T03:17:20.618Z,12.37
2023-05-16T03:19:48.193Z,12.39
2023-05-16T03:22:17.032Z,12.40
2023-05-16T03:24:44.753Z,12.28
2023-05-16T03:27:12.467Z,12.24
2023-05-16T03:29:39.934Z,12.10
2023-05-16T03:32:07.556Z,12.21
2023-05-16T03:34:35.206Z,12.29
2023-05-16T03:37:02.669Z,12.34
2023-05-16T03:39:31.459Z,12.38
2023-05-16T03:41:58.914Z,12.13
2023-05-16T03:44:26.376Z,12.09
2023-05-16T03:46:55.880Z,12.16
2023-05-16T03:49:28.316Z,12.30
2023-05-16T03:51:55.830Z,12.30
2023-05-16T03:54:23.298Z,12.43
2023-05-16T03:56:52.113Z,12.23
2023-05-16T03:59:19.646Z,12.40
2023-05-16T04:01:47.141Z,12.55
2023-05-16T04:04:15.114Z,12.63
2023-05-16T04:06:42.684Z,12.60
2023-05-16T04:09:10.190Z,12.20
2023-05-16T04:11:38.692Z,11.91
2023-05-16T04:14:07.543Z,11.65
2023-05-16T04:16:35.084Z,11.60
2023-05-16T04:19:04.110Z,11.36
2023-05-16T04:21:31.774Z,11.09
2023-05-16T04:23:59.219Z,11.84
2023-05-16T04:26:27.483Z,12.47
2023-05-16T04:28:54.938Z,12.71
2023-05-16T04:31:24.340Z,12.86
2023-05-16T04:33:52.229Z,13.24
2023-05-16T04:36:19.723Z,12.76
2023-05-16T04:38:47.542Z,12.39
2023-05-16T04:41:15.228Z,12.71
2023-05-16T04:43:43.057Z,13.22
2023-05-16T04:46:10.539Z,13.43
2023-05-16T04:48:39.352Z,13.71
2023-05-16T04:51:06.797Z,13.92
2023-05-16T04:53:34.270Z,14.06
2023-05-16T04:56:02.038Z,13.51
2023-05-16T04:58:29.581Z,12.37
2023-05-16T05:00:57.720Z,12.02
2023-05-16T05:03:25.199Z,11.97
2023-05-16T05:05:54.301Z,11.74
2023-05-16T05:08:22.616Z,12.20
2023-05-16T05:10:50.085Z,12.07
2023-05-16T05:13:17.590Z,12.17
2023-05-16T05:15:45.054Z,12.24
2023-05-16T05:18:12.600Z,12.91
2023-05-16T05:20:40.139Z,13.46
2023-05-16T05:23:08.922Z,13.38
2023-05-16T05:25:37.869Z,13.59
2023-05-16T05:28:05.945Z,13.80
2023-05-16T05:30:33.411Z,13.50
2023-05-16T05:33:01.148Z,13.44
2023-05-16T05:35:28.846Z,13.91
2023-05-16T05:37:56.645Z,15.30
2023-05-16T05:40:25.460Z,15.76
2023-05-16T05:42:53.099Z,15.75
2023-05-16T05:45:20.667Z,15.69
2023-05-16T05:47:48.221Z,16.21
2023-05-16T05:50:16.745Z,15.97
2023-05-16T05:52:44.308Z,16.62
2023-05-16T05:55:11.757Z,16.54
2023-05-16T05:57:40.729Z,16.62
2023-05-16T06:00:09.889Z,17.04
2023-05-16T06:02:37.398Z,16.24
2023-05-16T06:05:05.685Z,15.61
2023-05-16T06:07:33.255Z,15.22
2023-05-16T06:10:05.068Z,15.83
2023-05-16T06:12:33.098Z,15.21
2023-05-16T06:15:01.892Z,15.60
2023-05-16T06:17:29.420Z,15.94
2023-05-16T06:19:56.924Z,16.38
2023-05-16T06:22:24.356Z,16.48
2023-05-16T06:24:51.795Z,17.14
2023-05-16T06:27:19.232Z,16.65
2023-05-16T06:29:46.702Z,16.61
2023-05-16T06:32:15.493Z,16.74
2023-05-16T06:34:43.038Z,16.36
2023-05-16T06:37:10.512Z,16.41
2023-05-16T06:39:37.973Z,16.26
2023-05-16T06:42:05.820Z,15.81
2023-05-16T06:44:33.434Z,15.53
2023-05-16T06:47:00.974Z,14.70
2023-05-16T06:49:29.840Z,14.61
2023-05-16T06:51:57.323Z,15.29
2023-05-16T06:54:24.830Z,15.52
2023-05-16T06:56:52.373Z,16.05
2023-05-16T06:59:19.852Z,16.07
2023-05-16T07:01:47.479Z,16.77
2023-05-16T07:04:15.637Z,16.39
2023-05-16T07:06:44.641Z,15.94
2023-05-16T07:09:12.262Z,16.50
2023-05-16T07:11:39.740Z,16.05
2023-05-16T07:14:07.258Z,14.63
2023-05-16T07:16:34.935Z,15.09
2023-05-16T07:19:02.587Z,15.84
2023-05-16T07:21:30.185Z,15.80
2023-05-16T07:23:59.054Z,15.29
2023-05-16T07:26:26.614Z,15.43
2023-05-16T07:28:54.134Z,15.36
2023-05-16T07:31:21.847Z,14.78
2023-05-16T07:33:52.652Z,14.79
2023-05-16T07:36:20.172Z,14.88
2023-05-16T07:38:47.739Z,14.68
2023-05-16T07:41:16.611Z,15.07
2023-05-16T07:43:44.107Z,15.34
2023-05-16T07:46:12.303Z,14.98
2023-05-16T07:48:39.857Z,14.95
2023-05-16T07:51:07.567Z,15.40
2023-05-16T07:53:35.124Z,15.17
2023-05-16T07:56:02.617Z,15.51
2023-05-16T07:58:31.639Z,15.66
2023-05-16T08:00:59.185Z,15.67
2023-05-16T08:03:27.050Z,15.47
2023-05-16T08:05:54.800Z,15.54
2023-05-16T08:08:22.385Z,16.40
2023-05-16T08:10:49.908Z,16.62
2023-05-16T08:13:17.430Z,16.65
2023-05-16T08:15:46.723Z,16.57
2023-05-16T08:18:16.348Z,16.71
2023-05-16T08:20:44.299Z,16.37
2023-05-16T08:23:11.828Z,17.00
2023-05-16T08:25:39.543Z,17.81
2023-05-16T08:28:07.092Z,17.56
2023-05-16T08:30:34.812Z,17.90
2023-05-16T08:33:05.366Z,17.94
2023-05-16T08:35:33.011Z,18.45
2023-05-16T08:38:00.511Z,17.15
2023-05-16T08:40:29.107Z,17.84
2023-05-16T08:42:57.114Z,18.26
2023-05-16T08:45:25.183Z,19.07
2023-05-16T08:47:56.240Z,18.55
2023-05-16T08:50:25.691Z,19.18
2023-05-16T08:52:54.488Z,20.43
2023-05-16T08:55:23.169Z,20.84
2023-05-16T08:57:51.977Z,21.92
2023-05-16T09:00:20.508Z,22.29
2023-05-16T09:02:48.377Z,22.95
2023-05-16T09:05:17.151Z,22.48
2023-05-16T09:07:46.703Z,22.37
2023-05-16T09:10:14.567Z,22.10
2023-05-16T09:12:43.410Z,22.13
2023-05-16T09:15:11.668Z,20.49
2023-05-16T09:17:43.518Z,19.15
2023-05-16T09:20:14.002Z,19.94
2023-05-16T09:22:50.650Z,20.05
2023-05-16T09:25:29.493Z,19.15
2023-05-16T09:28:00.251Z,18.91
2023-05-16T09:30:30.464Z,18.31
2023-05-16T09:32:59.039Z,18.23
2023-05-16T09:35:43.181Z,18.05
2023-05-16T09:38:15.688Z,19.85
2023-05-16T09:40:45.583Z,19.25
2023-05-16T09:43:16.833Z,19.39
2023-05-16T09:45:47.610Z,18.79
2023-05-16T09:48:16.788Z,18.17
2023-05-16T09:50:49.744Z,18.98
2023-05-16T09:53:17.262Z,19.51
2023-05-16T09:55:46.224Z,18.35
2023-05-16T09:58:18.260Z,17.73
2023-05-16T10:00:46.990Z,18.36
2023-05-16T10:03:16.061Z,18.33
2023-05-16T10:05:44.032Z,18.77
2023-05-16T10:08:12.360Z,18.66
2023-05-16T10:10:40.712Z,19.58
2023-05-16T10:13:11.333Z,20.51
2023-05-16T10:15:39.450Z,20.97
2023-05-16T10:18:12.558Z,20.50
2023-05-16T10:20:42.541Z,20.79
2023-05-16T10:23:13.039Z,20.92
2023-05-16T10:25:44.277Z,20.43
2023-05-16T10:28:13.902Z,21.66
2023-05-16T10:30:43.997Z,20.28
2023-05-16T10:33:13.914Z,18.04
2023-05-16T10:35:41.878Z,19.07
2023-05-16T10:38:12.036Z,18.87
2023-05-16T10:40:41.139Z,18.03
2023-05-16T10:43:09.974Z,17.30
2023-05-16T10:45:42.855Z,17.31
2023-05-16T10:48:13.432Z,17.08
2023-05-16T10:50:43.564Z,17.13
2023-05-16T10:53:22.033Z,17.22
2023-05-16T10:56:11.020Z,17.55
2023-05-16T10:58:45.973Z,17.81
2023-05-16T11:01:19.604Z,17.43
2023-05-16T11:04:11.048Z,17.39
2023-05-16T11:06:51.590Z,17.46
2023-05-16T11:09:22.245Z,17.41
2023-05-16T11:11:57.300Z,17.08
2023-05-16T11:14:26.910Z,17.09
2023-05-16T11:17:02.892Z,16.86
2023-05-16T11:19:36.653Z,16.95
2023-05-16T11:22:14.988Z,17.19
2023-05-16T11:24:51.053Z,17.30
2023-05-16T11:27:23.875Z,17.14
2023-05-16T11:29:51.983Z,17.64
2023-05-16T11:32:24.820Z,17.56
2023-05-16T11:34:54.451Z,16.90
2023-05-16T11:37:22.905Z,16.54
2023-05-16T11:39:53.001Z,16.58
2023-05-16T11:42:20.757Z,16.60
2023-05-16T11:44:48.238Z,16.84
2023-05-16T11:47:15.777Z,16.73
2023-05-16T11:49:44.718Z,16.83
2023-05-16T11:52:12.273Z,17.02
2023-05-16T11:54:42.347Z,17.15
2023-05-16T11:57:10.133Z,17.28
2023-05-16T11:59:38.210Z,17.82
2023-05-16T12:02:06.892Z,17.74
2023-05-16T12:04:34.599Z,17.87
2023-05-16T12:07:04.072Z,17.52
2023-05-16T12:09:31.601Z,17.84
2023-05-16T12:11:59.318Z,18.22
2023-05-16T12:14:27.577Z,17.69
2023-05-16T12:16:55.670Z,17.79
2023-05-16T12:19:23.608Z,17.63
2023-05-16T12:21:54.227Z,17.92
2023-05-16T12:24:23.107Z,18.79
2023-05-16T12:26:50.787Z,17.70
2023-05-16T12:29:18.418Z,16.79
2023-05-16T12:31:45.991Z,15.70
2023-05-16T12:34:17.912Z,14.80
2023-05-16T12:36:45.541Z,14.61
2023-05-16T12:39:15.277Z,14.42
2023-05-16T12:41:44.407Z,14.05
2023-05-16T12:44:14.428Z,13.75
2023-05-16T12:46:43.130Z,13.62
2023-05-16T12:49:11.039Z,13.51
2023-05-16T12:51:38.725Z,13.70
2023-05-16T12:54:11.554Z,13.91
2023-05-16T12:56:40.017Z,14.18
2023-05-16T12:59:09.305Z,14.47
2023-05-16T13:01:37.528Z,14.96
2023-05-16T13:04:05.961Z,14.06
2023-05-16T13:06:48.999Z,13.89
2023-05-16T13:09:21.185Z,13.86
2023-05-16T13:11:48.831Z,13.67
2023-05-16T13:14:18.305Z,13.71
2023-05-16T13:16:45.885Z,13.50
2023-05-16T13:19:13.497Z,13.57
2023-05-16T13:21:41.053Z,13.81
2023-05-16T13:24:08.650Z,13.68
2023-05-16T13:26:36.182Z,13.29
2023-05-16T13:29:03.667Z,13.34
2023-05-16T13:31:32.562Z,13.39
2023-05-16T13:34:00.092Z,13.46
2023-05-16T13:36:29.838Z,13.37
2023-05-16T13:39:02.768Z,13.37
2023-05-16T13:41:30.263Z,13.62
2023-05-16T13:43:57.775Z,13.84
2023-05-16T13:46:25.580Z,13.52
2023-05-16T13:48:54.444Z,13.62
2023-05-16T13:51:22.032Z,13.74
2023-05-16T13:53:49.515Z,13.69
2023-05-16T13:56:17.093Z,13.49
2023-05-16T13:58:59.688Z,13.57
2023-05-16T14:01:28.190Z,13.78
2023-05-16T14:03:57.341Z,13.89
2023-05-16T14:06:24.946Z,13.99
2023-05-16T14:08:52.433Z,14.03
2023-05-16T14:11:22.974Z,13.91
2023-05-16T14:13:50.464Z,14.13
2023-05-16T14:16:17.983Z,14.17
2023-05-16T14:18:45.541Z,14.13
2023-05-16T14:21:14.472Z,14.16
2023-05-16T14:23:42.336Z,14.33
2023-05-16T14:26:09.840Z,14.41
2023-05-16T14:28:37.309Z,14.46
2023-05-16T14:31:04.847Z,14.10
2023-05-16T14:33:32.955Z,14.14
2023-05-16T14:36:00.764Z,14.20
2023-05-16T14:38:29.637Z,14.38
2023-05-16T14:40:57.146Z,14.41
2023-05-16T14:43:24.632Z,14.57
2023-05-16T14:45:52.168Z,14.55
2023-05-16T14:48:19.749Z,14.59
2023-05-16T14:50:49.391Z,14.49
2023-05-16T14:53:17.034Z,14.72
2023-05-16T14:55:45.851Z,14.43
2023-05-16T14:58:13.364Z,14.77
2023-05-16T15:00:40.894Z,14.71
2023-05-16T15:03:08.494Z,15.19
2023-05-16T15:05:36.038Z,15.05
2023-05-16T15:08:03.564Z,14.58
2023-05-16T15:10:31.085Z,14.76
2023-05-16T15:12:59.915Z,15.25
2023-05-16T15:15:27.479Z,15.28
2023-05-16T15:17:55.153Z,15.26
2023-05-16T15:20:23.394Z,14.95
2023-05-16T15:22:50.900Z,15.11
2023-05-16T15:25:18.617Z,15.36
2023-05-16T15:27:46.113Z,15.41
2023-05-16T15:30:15.646Z,15.48
2023-05-16T15:32:43.160Z,15.43
2023-05-16T15:35:11.341Z,15.11
2023-05-16T15:37:38.954Z,15.32
2023-05-16T15:40:08.906Z,15.12
2023-05-16T15:42:36.405Z,15.41
2023-05-16T15:45:04.295Z,15.08
2023-05-16T15:47:33.316Z,14.97
2023-05-16T15:50:00.915Z,14.95
2023-05-16T15:52:28.436Z,14.72
2023-05-16T15:54:55.964Z,14.40
2023-05-16T15:57:24.321Z,14.53
2023-05-16T15:59:51.818Z,14.08
2023-05-16T16:02:19.332Z,13.96
2023-05-16T16:04:49.117Z,14.06
2023-05-16T16:07:16.651Z,13.77
2023-05-16T16:09:45.430Z,13.94
2023-05-16T16:12:12.949Z,14.10
2023-05-16T16:14:41.235Z,13.54
2023-05-16T16:17:08.786Z,13.51
2023-05-16T16:19:36.709Z,13.59
2023-05-16T16:22:06.377Z,13.60
2023-05-16T16:24:34.438Z,13.57
2023-05-16T16:27:01.939Z,13.17
2023-05-16T16:29:29.486Z,13.21
2023-05-16T16:31:57.219Z,13.46
2023-05-16T16:34:24.835Z,13.14
2023-05-16T16:36:52.335Z,13.31
2023-05-16T16:39:21.207Z,13.12
2023-05-16T16:41:48.759Z,13.11
2023-05-16T16:44:16.256Z,13.01
2023-05-16T16:46:43.883Z,12.96
2023-05-16T16:49:11.539Z,13.02
2023-05-16T16:51:39.071Z,12.94
2023-05-16T16:54:06.611Z,12.96
2023-05-16T16:56:36.133Z,13.02
2023-05-16T16:59:04.678Z,12.81
2023-05-16T17:01:32.724Z,12.96
2023-05-16T17:04:00.713Z,12.81
2023-05-16T17:06:29.780Z,12.65
2023-05-16T17:08:57.374Z,12.75
2023-05-16T17:11:25.025Z,12.59
2023-05-16T17:13:59.066Z,12.43
2023-05-16T17:16:27.648Z,12.27
2023-05-16T17:18:55.198Z,12.37
2023-05-16T17:21:22.850Z,12.19
2023-05-16T17:23:51.389Z,12.36
2023-05-16T17:26:18.885Z,12.17
2023-05-16T17:28:46.786Z,12.11
2023-05-16T17:31:15.790Z,11.96
2023-05-16T17:33:43.427Z,12.01
2023-05-16T17:36:11.236Z,12.15
2023-05-16T17:38:38.839Z,12.00
2023-05-16T17:41:06.350Z,11.88
2023-05-16T17:43:33.867Z,11.78
2023-05-16T17:46:01.445Z,11.61
2023-05-16T17:48:30.657Z,11.57
2023-05-16T17:50:58.615Z,11.46
2023-05-16T17:53:26.675Z,11.49
2023-05-16T17:55:54.202Z,11.43
2023-05-16T17:58:21.712Z,11.39
2023-05-16T18:00:49.395Z,11.33
2023-05-16T18:03:17.555Z,11.43
2023-05-16T18:05:46.596Z,11.38
2023-05-16T18:08:14.131Z,11.29
2023-05-16T18:10:51.626Z,11.26
2023-05-16T18:13:19.997Z,11.28
2023-05-16T18:15:47.703Z,11.23
2023-05-16T18:18:15.382Z,11.26
2023-05-16T18:20:44.018Z,11.30
2023-05-16T18:23:12.998Z,11.15
2023-05-16T18:25:40.477Z,11.04
2023-05-16T18:28:07.993Z,10.87
2023-05-16T18:30:37.810Z,10.73
2023-05-16T18:33:06.441Z,10.88
2023-05-16T18:35:34.065Z,10.80
2023-05-16T18:38:03.720Z,10.71
2023-05-16T18:40:32.968Z,10.66
2023-05-16T18:43:00.517Z,10.69
2023-05-16T18:45:29.827Z,10.68
2023-05-16T18:47:57.682Z,10.80
2023-05-16T18:50:25.975Z,10.70
2023-05-16T18:52:57.294Z,10.67
2023-05-16T18:55:24.917Z,10.64
2023-05-16T18:57:53.980Z,10.75
2023-05-16T19:00:21.643Z,10.65
2023-05-16T19:02:49.346Z,10.77
2023-05-16T19:05:17.027Z,10.58
2023-05-16T19:07:44.588Z,10.46
2023-05-16T19:10:12.766Z,10.57
2023-05-16T19:12:40.299Z,10.53
2023-05-16T19:15:11.308Z,10.47
2023-05-16T19:17:41.495Z,10.41
2023-05-16T19:20:10.886Z,10.35
2023-05-16T19:22:38.875Z,10.33
2023-05-16T19:25:07.611Z,10.38
2023-05-16T19:27:35.677Z,10.35
2023-05-16T19:30:03.181Z,10.29
2023-05-16T19:32:32.117Z,10.29
2023-05-16T19:34:59.779Z,10.34
2023-05-16T19:37:27.482Z,10.25
2023-05-16T19:39:55.012Z,10.30
2023-05-16T19:42:22.574Z,10.28
2023-05-16T19:44:50.112Z,10.20
2023-05-16T19:47:17.645Z,10.26
2023-05-16T19:49:46.548Z,10.22
2023-05-16T19:52:14.563Z,10.25
2023-05-16T19:54:44.364Z,10.23
2023-05-16T19:57:11.979Z,10.25
2023-05-16T19:59:39.503Z,10.27
2023-05-16T20:02:07.077Z,10.18
2023-05-16T20:04:34.637Z,10.07
2023-05-16T20:07:03.510Z,10.07
2023-05-16T20:09:31.147Z,10.10
2023-05-16T20:11:58.846Z,10.14
2023-05-16T20:14:27.604Z,10.29
2023-05-16T20:16:55.125Z,10.14
2023-05-16T20:19:23.770Z,10.03
2023-05-16T20:21:51.418Z,9.93
2023-05-16T20:24:20.309Z,9.89
2023-05-16T20:26:47.818Z,9.84
2023-05-16T20:29:15.461Z,9.79
2023-05-16T20:31:43.721Z,9.77
2023-05-16T20:34:11.581Z,9.84
2023-05-16T20:36:39.156Z,9.75
2023-05-16T20:39:08.899Z,9.75
2023-05-16T20:41:37.733Z,9.66
2023-05-16T20:44:06.654Z,9.65
2023-05-16T20:46:34.314Z,9.51
2023-05-16T20:49:01.937Z,9.50
2023-05-16T20:51:29.480Z,9.51
2023-05-16T20:53:56.977Z,9.55
2023-05-16T20:56:24.566Z,9.56
2023-05-16T20:58:53.379Z,9.54
2023-05-16T21:01:21.024Z,9.52
2023-05-16T21:03:48.550Z,9.46
2023-05-16T21:06:16.074Z,9.49
2023-05-16T21:08:43.672Z,9.49
2023-05-16T21:11:11.188Z,9.51
2023-05-16T21:13:38.675Z,9.41
2023-05-16T21:16:08.178Z,9.54
2023-05-16T21:18:35.814Z,9.44
2023-05-16T21:21:03.362Z,9.33
2023-05-16T21:23:30.877Z,9.35
2023-05-16T21:25:58.412Z,9.35
2023-05-16T21:28:26.088Z,9.36
2023-05-16T21:30:54.245Z,9.48
2023-05-16T21:33:23.172Z,9.47
2023-05-16T21:35:52.469Z,9.47
2023-05-16T21:38:20.021Z,9.34
2023-05-16T21:40:47.770Z,9.36
2023-05-16T21:43:15.304Z,9.25
2023-05-16T21:45:43.026Z,9.21
2023-05-16T21:48:10.654Z,9.31
2023-05-16T21:50:39.575Z,9.12
2023-05-16T21:53:07.137Z,9.13
2023-05-16T21:55:34.621Z,9.05
2023-05-16T21:58:02.191Z,9.01
2023-05-16T22:00:29.665Z,9.07
2023-05-16T22:02:57.304Z,8.93
2023-05-16T22:05:25.057Z,9.07
2023-05-16T22:07:53.920Z,9.07
2023-05-16T22:10:21.436Z,9.00
2023-05-16T22:12:48.950Z,9.13
2023-05-16T22:15:16.455Z,9.03
2023-05-16T22:17:44.020Z,9.01
2023-05-16T22:20:12.198Z,8.92
2023-05-16T22:22:39.800Z,9.00
2023-05-16T22:25:09.512Z,8.92
2023-05-16T22:27:37.127Z,8.85
2023-05-16T22:30:06.075Z,8.66
2023-05-16T22:32:33.682Z,8.90
2023-05-16T22:35:01.202Z,8.89
2023-05-16T22:37:28.774Z,8.78
2023-05-16T22:39:57.021Z,8.81
2023-05-16T22:42:25.891Z,8.86
2023-05-16T22:44:53.433Z,8.80
2023-05-16T22:47:20.921Z,8.87
2023-05-16T22:49:48.478Z,8.77
2023-05-16T22:52:15.970Z,8.88
2023-05-16T22:54:43.434Z,8.92
2023-05-16T22:57:11.081Z,8.93
2023-05-16T22:59:39.970Z,8.92
2023-05-16T23:02:07.511Z,8.91
2023-05-16T23:04:35.029Z,8.96
2023-05-16T23:07:03.288Z,8.95
2023-05-16T23:09:30.838Z,8.90
2023-05-16T23:11:58.491Z,8.86
2023-05-16T23:14:25.999Z,8.87
2023-05-16T23:16:54.882Z,8.89
2023-05-16T23:19:22.563Z,8.69
2023-05-16T23:21:50.233Z,8.65
2023-05-16T23:24:17.766Z,8.72
2023-05-16T23:26:45.279Z,8.71
2023-05-16T23:29:12.822Z,8.72
2023-05-16T23:31:40.331Z,8.74
2023-05-16T23:34:09.338Z,8.70
2023-05-16T23:36:36.926Z,8.74
2023-05-16T23:39:04.601Z,8.67
2023-05-16T23:41:32.113Z,8.53
2023-05-16T23:43:59.581Z,8.57
2023-05-16T23:46:27.074Z,8.47
2023-05-16T23:48:56.823Z,8.57
2023-05-16T23:51:25.786Z,8.56
2023-05-16T23:53:53.327Z,8.44
2023-05-16T23:56:20.808Z,8.39
2023-05-16T23:58:49.131Z,8.35
